Time;durP1;ratioP1;P1;durP2;ratioP2;P2;SDS_P1;SDS_P2;PMS_P1;PMS_P2;Temp;Humidity;BMP_temperature;BMP_pressure;BME280_temperature;BME280_humidity;BME280_pressure;Samples;Min_cycle;Max_cycle;Signal;HPM_P1;HPM_P2
2022/02/03 00:02:03;;;;;;;8.13;2.30;;;;;;;;;;6004192;29;20049;-73
2022/02/03 00:05:12;;;;;;;5.55;2.10;;;;;;;;;;6005585;29;20046;-74
2022/02/03 00:16:07;;;;;;;5.53;1.80;;;;;;;;;;5999846;29;20451;-73
2022/02/03 00:22:11;;;;;;;4.15;1.48;;;;;;;;;;6008156;29;20053;-75
2022/02/03 00:25:19;;;;;;;5.65;1.45;;;;;;;;;;6009677;29;20437;-75
2022/02/03 00:28:27;;;;;;;4.65;1.63;;;;;;;;;;6009516;29;20133;-75
2022/02/03 00:31:42;;;;;;;2.65;1.20;;;;;;;;;;6009471;29;20482;-75
2022/02/03 00:34:55;;;;;;;3.75;1.25;;;;;;;;;;6007977;29;20050;-75
2022/02/03 00:38:22;;;;;;;3.38;1.30;;;;;;;;;;6009428;29;20058;-73
2022/02/03 00:48:22;;;;;;;2.17;1.45;;;;;;;;;;6007703;29;20102;-75
2022/02/03 00:51:27;;;;;;;3.05;1.00;;;;;;;;;;6008895;29;20231;-74
2022/02/03 00:54:33;;;;;;;1.15;1.02;;;;;;;;;;6009606;29;20067;-75
2022/02/03 00:57:40;;;;;;;2.50;1.00;;;;;;;;;;6007710;29;20053;-75
2022/02/03 01:00:49;;;;;;;2.55;1.27;;;;;;;;;;6008521;29;20057;-75
2022/02/03 01:03:56;;;;;;;3.42;1.10;;;;;;;;;;6007687;29;20050;-75
2022/02/03 01:06:59;;;;;;;1.73;1.00;;;;;;;;;;6007188;29;20064;-73
2022/02/03 01:10:13;;;;;;;1.50;1.00;;;;;;;;;;6007628;29;20050;-73
2022/02/03 01:13:33;;;;;;;1.92;0.90;;;;;;;;;;6008281;29;20056;-75
2022/02/03 01:16:54;;;;;;;2.75;0.95;;;;;;;;;;6007803;29;20493;-75
2022/02/03 01:33:42;;;;;;;3.28;1.35;;;;;;;;;;6007967;29;20105;-74
2022/02/03 01:37:10;;;;;;;4.13;1.60;;;;;;;;;;6005988;29;20054;-74
2022/02/03 01:43:45;;;;;;;2.25;1.20;;;;;;;;;;5954435;29;20058;-75
2022/02/03 01:46:54;;;;;;;5.20;1.70;;;;;;;;;;6005206;29;20054;-75
2022/02/03 01:53:22;;;;;;;4.05;1.40;;;;;;;;;;6005454;29;20110;-75
2022/02/03 01:56:33;;;;;;;2.28;1.13;;;;;;;;;;6006247;29;20474;-74
2022/02/03 01:59:37;;;;;;;3.75;1.38;;;;;;;;;;6006315;29;20421;-75
2022/02/03 02:02:46;;;;;;;3.33;1.20;;;;;;;;;;6006429;29;20133;-75
2022/02/03 02:05:59;;;;;;;2.95;1.23;;;;;;;;;;6005870;29;20054;-73
2022/02/03 02:09:06;;;;;;;2.97;1.40;;;;;;;;;;6006058;29;20057;-75
2022/02/03 02:12:21;;;;;;;5.25;1.52;;;;;;;;;;6005947;29;20136;-75
2022/02/03 02:39:01;;;;;;;4.90;1.77;;;;;;;;;;6004853;29;20058;-74
2022/02/03 02:42:32;;;;;;;3.55;1.45;;;;;;;;;;6005465;29;20058;-74
2022/02/03 02:45:44;;;;;;;4.82;1.50;;;;;;;;;;6005362;29;20417;-74
2022/02/03 02:49:01;;;;;;;2.78;1.60;;;;;;;;;;6006248;29;20050;-76
2022/02/03 02:52:08;;;;;;;4.93;1.85;;;;;;;;;;6006494;29;20058;-75
2022/02/03 02:55:23;;;;;;;3.30;1.58;;;;;;;;;;6006523;29;20115;-75
2022/02/03 02:58:47;;;;;;;5.30;1.33;;;;;;;;;;6005007;29;20054;-75
2022/02/03 03:35:49;;;;;;;10.43;1.92;;;;;;;;;;5991033;29;20068;-74
2022/02/03 03:38:54;;;;;;;5.90;2.08;;;;;;;;;;6005748;29;20128;-75
2022/02/03 03:41:59;;;;;;;6.45;2.35;;;;;;;;;;6005661;29;20049;-75
2022/02/03 03:45:04;;;;;;;6.90;1.83;;;;;;;;;;6005537;29;20053;-75
2022/02/03 03:48:09;;;;;;;5.50;1.90;;;;;;;;;;6004985;29;20054;-75
2022/02/03 03:51:14;;;;;;;7.47;2.33;;;;;;;;;;6009385;29;20187;-75
2022/02/03 03:54:29;;;;;;;12.10;2.55;;;;;;;;;;6008617;29;20050;-74
2022/02/03 03:57:46;;;;;;;6.80;2.20;;;;;;;;;;6010277;29;20057;-75
2022/02/03 04:32:14;;;;;;;10.05;2.30;;;;;;;;;;6008383;29;20053;-74
2022/02/03 04:38:54;;;;;;;5.60;1.95;;;;;;;;;;6008248;29;20050;-74
2022/02/03 04:42:36;;;;;;;9.65;2.00;;;;;;;;;;6009046;29;20060;-74
2022/02/03 05:03:39;;;;;;;6.65;2.13;;;;;;;;;;5973816;29;20502;-74
2022/02/03 05:06:56;;;;;;;7.07;2.67;;;;;;;;;;6006941;29;20066;-75
2022/02/03 05:10:27;;;;;;;12.27;2.45;;;;;;;;;;6007363;29;20054;-73
2022/02/03 05:14:16;;;;;;;8.70;2.33;;;;;;;;;;6008824;29;20072;-74
2022/02/03 05:21:15;;;;;;;12.18;3.90;;;;;;;;;;6007550;29;20050;-73
2022/02/03 05:42:06;;;;;;;11.82;3.28;;;;;;;;;;6003837;29;20054;-73
2022/02/03 05:48:55;;;;;;;9.00;3.38;;;;;;;;;;6004082;29;20058;-74
2022/02/03 06:05:44;;;;;;;8.32;2.70;;;;;;;;;;6005516;29;20065;-73
2022/02/03 06:08:56;;;;;;;6.97;2.40;;;;;;;;;;6005077;29;20086;-74
2022/02/03 06:12:24;;;;;;;11.00;2.53;;;;;;;;;;6006075;29;20058;-74
2022/02/03 06:15:31;;;;;;;;;;;;;;;;;;6006041;29;20142;-73
2022/02/03 06:22:10;;;;;;;7.80;3.00;;;;;;;;;;5977742;29;20058;-74
2022/02/03 06:28:34;;;;;;;6.15;2.30;;;;;;;;;;6006884;29;20054;-74
2022/02/03 06:31:41;;;;;;;8.98;2.47;;;;;;;;;;6005699;29;20061;-75
2022/02/03 06:34:44;;;;;;;6.25;2.00;;;;;;;;;;6005034;29;20597;-74
2022/02/03 06:37:49;;;;;;;6.63;2.47;;;;;;;;;;6006593;29;20049;-74
2022/02/03 06:40:54;;;;;;;6.68;3.03;;;;;;;;;;6005579;29;20101;-75
2022/02/03 06:43:57;;;;;;;6.25;1.92;;;;;;;;;;6006222;29;20054;-74
2022/02/03 06:47:05;;;;;;;5.63;2.33;;;;;;;;;;6006327;29;20497;-75
2022/02/03 06:50:16;;;;;;;6.65;2.90;;;;;;;;;;6006177;29;20053;-74
2022/02/03 06:53:24;;;;;;;8.18;2.33;;;;;;;;;;6006126;29;20050;-74
2022/02/03 06:56:37;;;;;;;9.60;3.03;;;;;;;;;;6006047;29;20058;-74
2022/02/03 06:59:47;;;;;;;9.60;2.47;;;;;;;;;;6005173;29;20531;-74
2022/02/03 07:02:54;;;;;;;13.55;2.85;;;;;;;;;;6005286;29;20569;-74
2022/02/03 07:05:57;;;;;;;9.90;2.47;;;;;;;;;;6006123;29;20121;-74
2022/02/03 07:09:07;;;;;;;7.30;3.22;;;;;;;;;;6004289;29;20085;-74
2022/02/03 07:12:10;;;;;;;10.30;2.30;;;;;;;;;;6004647;29;20525;-74
2022/02/03 07:15:13;;;;;;;5.95;2.35;;;;;;;;;;6006092;29;20046;-74
2022/02/03 07:18:18;;;;;;;9.05;2.78;;;;;;;;;;6005668;29;20050;-74
2022/02/03 07:21:21;;;;;;;8.32;2.65;;;;;;;;;;6005723;29;20054;-75
2022/02/03 07:24:25;;;;;;;8.25;2.42;;;;;;;;;;6004243;29;20046;-74
2022/02/03 07:27:31;;;;;;;9.45;2.47;;;;;;;;;;6004541;29;20049;-74
2022/02/03 07:30:39;;;;;;;8.70;2.58;;;;;;;;;;6004124;29;20050;-73
2022/02/03 07:33:45;;;;;;;11.85;2.20;;;;;;;;;;6005553;29;20481;-74
2022/02/03 07:36:48;;;;;;;8.25;2.33;;;;;;;;;;6005861;29;20070;-73
2022/02/03 07:39:53;;;;;;;10.93;2.67;;;;;;;;;;6003985;29;20106;-73
2022/02/03 07:43:05;;;;;;;12.23;2.58;;;;;;;;;;6005344;29;20557;-74
2022/02/03 07:46:08;;;;;;;8.15;1.80;;;;;;;;;;6005810;29;20057;-73
2022/02/03 07:49:11;;;;;;;9.48;2.17;;;;;;;;;;6003907;29;20153;-74
2022/02/03 07:52:14;;;;;;;5.90;2.05;;;;;;;;;;6004036;29;20516;-74
2022/02/03 07:55:20;;;;;;;9.45;2.60;;;;;;;;;;6004126;29;20129;-75
2022/02/03 07:58:26;;;;;;;9.43;2.10;;;;;;;;;;6004512;29;20054;-75
2022/02/03 08:01:29;;;;;;;10.25;2.30;;;;;;;;;;6004848;29;20475;-74
2022/02/03 08:04:42;;;;;;;7.32;2.50;;;;;;;;;;6005264;29;20058;-74
2022/02/03 08:07:50;;;;;;;8.77;2.30;;;;;;;;;;6004155;29;20058;-74
2022/02/03 08:10:58;;;;;;;4.95;2.00;;;;;;;;;;6005267;29;20046;-74
2022/02/03 08:14:08;;;;;;;7.13;2.10;;;;;;;;;;6003638;29;20046;-74
2022/02/03 08:17:16;;;;;;;6.28;2.30;;;;;;;;;;6005216;29;20466;-74
2022/02/03 08:20:20;;;;;;;7.38;2.65;;;;;;;;;;6005659;29;20133;-75
2022/02/03 08:23:53;;;;;;;5.50;2.10;;;;;;;;;;6005177;29;20050;-75
2022/02/03 08:27:12;;;;;;;7.93;2.20;;;;;;;;;;6004909;29;20417;-74
2022/02/03 08:33:52;;;;;;;5.63;1.70;;;;;;;;;;5957400;29;20493;-74
2022/02/03 08:36:56;;;;;;;5.40;2.10;;;;;;;;;;6008172;29;20050;-73
2022/02/03 08:40:10;;;;;;;30.40;14.40;;;;;;;;;;6007744;29;20077;-75
2022/02/03 08:43:16;;;;;;;5.57;2.38;;;;;;;;;;6009023;29;20133;-76
2022/02/03 08:46:24;;;;;;;7.10;2.42;;;;;;;;;;6008335;29;20417;-74
2022/02/03 08:49:28;;;;;;;4.47;1.92;;;;;;;;;;6007853;29;20042;-74
2022/02/03 08:52:40;;;;;;;6.65;2.25;;;;;;;;;;6007420;29;20057;-75
2022/02/03 08:55:52;;;;;;;5.35;2.55;;;;;;;;;;6008929;29;20054;-75
2022/02/03 10:00:00;;;;;;;3.20;1.65;;;;;;;;;;5974638;29;20058;-82
2022/02/03 10:03:07;;;;;;;7.88;2.10;;;;;;;;;;6003129;29;20053;-81
2022/02/03 10:06:16;;;;;;;4.22;1.60;;;;;;;;;;6004843;29;20471;-82
2022/02/03 10:09:34;;;;;;;6.93;2.72;;;;;;;;;;6003737;29;20374;-80
2022/02/03 10:12:38;;;;;;;6.55;2.33;;;;;;;;;;6003384;29;20065;-80
2022/02/03 10:15:41;;;;;;;3.85;1.58;;;;;;;;;;6006914;29;20114;-84
2022/02/03 10:18:45;;;;;;;5.18;1.85;;;;;;;;;;6005842;29;20090;-84
2022/02/03 10:21:51;;;;;;;1.88;1.20;;;;;;;;;;6007343;29;20417;-88
2022/02/03 10:25:00;;;;;;;5.70;2.35;;;;;;;;;;6006828;29;20050;-81
2022/02/03 10:28:07;;;;;;;5.05;1.70;;;;;;;;;;6007141;29;20054;-78
2022/02/03 10:31:10;;;;;;;8.15;1.75;;;;;;;;;;6006878;29;20050;-84
2022/02/03 10:34:20;;;;;;;4.20;1.73;;;;;;;;;;6007135;29;20054;-83
2022/02/03 10:37:40;;;;;;;6.65;2.35;;;;;;;;;;6006444;29;20050;-77
2022/02/03 10:41:07;;;;;;;6.50;1.70;;;;;;;;;;6006691;29;20054;-76
2022/02/03 10:44:36;;;;;;;6.43;2.47;;;;;;;;;;6005800;29;20049;-78
2022/02/03 10:48:09;;;;;;;4.80;1.50;;;;;;;;;;6006705;29;20501;-77
2022/02/03 10:51:34;;;;;;;5.60;1.75;;;;;;;;;;6004900;29;20045;-80
2022/02/03 10:55:01;;;;;;;3.38;1.58;;;;;;;;;;6005968;29;20386;-80
2022/02/03 10:58:27;;;;;;;3.50;1.67;;;;;;;;;;6004142;29;20058;-80
2022/02/03 11:08:28;;;;;;;4.45;1.50;;;;;;;;;;5990671;29;20058;-75
2022/02/03 11:11:38;;;;;;;2.70;1.50;;;;;;;;;;6004368;29;20175;-75
2022/02/03 11:14:44;;;;;;;8.70;3.15;;;;;;;;;;6004721;29;20054;-77
2022/02/03 11:17:50;;;;;;;5.15;1.55;;;;;;;;;;6004778;29;20113;-78
2022/02/03 11:20:54;;;;;;;4.32;1.40;;;;;;;;;;6005044;29;20054;-77
2022/02/03 11:24:04;;;;;;;4.97;1.60;;;;;;;;;;6006941;29;20117;-77
2022/02/03 11:27:31;;;;;;;5.45;1.20;;;;;;;;;;6006161;29;20069;-78
2022/02/03 11:31:14;;;;;;;5.82;1.20;;;;;;;;;;6003985;29;20057;-76
2022/02/03 11:41:28;;;;;;;5.05;1.35;;;;;;;;;;6005304;29;20068;-77
2022/02/03 11:48:17;;;;;;;3.10;1.38;;;;;;;;;;5976966;29;20574;-77
2022/02/03 11:52:07;;;;;;;4.85;1.30;;;;;;;;;;6005123;29;20132;-76
2022/02/03 11:55:26;;;;;;;8.25;1.60;;;;;;;;;;6003873;29;20054;-76
2022/02/03 11:58:59;;;;;;;4.13;1.27;;;;;;;;;;6003931;29;20053;-79
2022/02/03 12:02:23;;;;;;;4.72;1.58;;;;;;;;;;6004679;29;20045;-76
2022/02/03 12:06:12;;;;;;;7.00;1.80;;;;;;;;;;6003953;29;20049;-73
2022/02/03 12:16:10;;;;;;;5.70;1.67;;;;;;;;;;6001894;29;20057;-76
2022/02/03 12:19:25;;;;;;;6.22;1.80;;;;;;;;;;5993457;29;20054;-73
2022/02/03 12:22:42;;;;;;;2.03;1.10;;;;;;;;;;6009208;29;20401;-73
2022/02/03 12:25:54;;;;;;;5.38;1.70;;;;;;;;;;6009071;29;20053;-74
2022/02/03 12:29:05;;;;;;;3.20;1.40;;;;;;;;;;6008148;29;20065;-74
2022/02/03 12:32:21;;;;;;;3.78;1.35;;;;;;;;;;6010180;29;20061;-75
2022/02/03 12:38:53;;;;;;;5.75;1.95;;;;;;;;;;6008682;29;20054;-75
2022/02/03 12:42:04;;;;;;;10.88;1.98;;;;;;;;;;6005898;29;20119;-74
2022/02/03 12:45:17;;;;;;;3.33;1.48;;;;;;;;;;6005561;29;20070;-74
2022/02/03 12:48:23;;;;;;;4.20;1.70;;;;;;;;;;6006623;29;20061;-75
2022/02/03 12:51:27;;;;;;;4.47;2.03;;;;;;;;;;6007372;29;20450;-75
2022/02/03 12:54:35;;;;;;;2.70;1.30;;;;;;;;;;6007496;29;20395;-73
2022/02/03 12:57:38;;;;;;;4.03;1.55;;;;;;;;;;6008151;29;20053;-73
2022/02/03 13:00:45;;;;;;;4.97;1.70;;;;;;;;;;6008239;29;20590;-73
2022/02/03 13:03:57;;;;;;;4.38;1.70;;;;;;;;;;6009113;29;20049;-74
2022/02/03 13:07:08;;;;;;;6.18;1.80;;;;;;;;;;6007383;29;20077;-73
2022/02/03 13:10:16;;;;;;;4.32;1.85;;;;;;;;;;6006807;29;20069;-74
2022/02/03 13:13:24;;;;;;;4.63;1.67;;;;;;;;;;6006896;29;20054;-74
2022/02/03 13:16:27;;;;;;;5.47;1.52;;;;;;;;;;6007213;29;20137;-75
2022/02/03 13:19:39;;;;;;;2.83;1.58;;;;;;;;;;6007144;29;20042;-73
2022/02/03 13:22:50;;;;;;;5.35;2.05;;;;;;;;;;6005711;29;20474;-73
2022/02/03 13:26:03;;;;;;;6.10;1.92;;;;;;;;;;6007987;29;20054;-74
2022/02/03 13:29:17;;;;;;;3.80;1.67;;;;;;;;;;6008393;29;20057;-74
2022/02/03 13:32:25;;;;;;;6.22;2.00;;;;;;;;;;6006425;29;20053;-74
2022/02/03 13:35:32;;;;;;;5.78;1.67;;;;;;;;;;6007324;29;20498;-75
2022/02/03 13:38:42;;;;;;;4.38;1.95;;;;;;;;;;6006474;29;20110;-75
2022/02/03 13:41:50;;;;;;;5.00;2.00;;;;;;;;;;6006888;29;20056;-75
2022/02/03 13:45:01;;;;;;;2.33;1.58;;;;;;;;;;6007395;29;20422;-74
2022/02/03 13:48:14;;;;;;;2.80;1.40;;;;;;;;;;6006117;29;20206;-73
2022/02/03 13:51:20;;;;;;;3.40;2.00;;;;;;;;;;6007791;29;20058;-75
2022/02/03 13:54:51;;;;;;;50.53;27.73;;;;;;;;;;6006791;29;20139;-75
2022/02/03 14:18:58;;;;;;;4.45;1.70;;;;;;;;;;6005087;29;20114;-74
2022/02/03 14:22:03;;;;;;;2.70;1.50;;;;;;;;;;6005663;29;20154;-75
2022/02/03 14:28:37;;;;;;;4.60;1.58;;;;;;;;;;6006948;29;20158;-74
2022/02/03 14:31:46;;;;;;;4.05;1.52;;;;;;;;;;6006430;29;20049;-74
2022/02/03 14:34:51;;;;;;;5.28;1.70;;;;;;;;;;6004440;29;20121;-73
2022/02/03 14:38:04;;;;;;;3.83;1.90;;;;;;;;;;6005184;29;20050;-74
2022/02/03 14:41:13;;;;;;;5.55;2.13;;;;;;;;;;6005844;29;20166;-73
2022/02/03 14:44:18;;;;;;;3.78;1.73;;;;;;;;;;6004790;29;20129;-75
2022/02/03 14:47:27;;;;;;;33.30;14.67;;;;;;;;;;6006986;29;20046;-75
2022/02/03 14:50:30;;;;;;;3.45;2.15;;;;;;;;;;6006518;29;20045;-75
2022/02/03 14:53:49;;;;;;;6.18;2.25;;;;;;;;;;6004495;29;20091;-74
2022/02/03 15:00:15;;;;;;;9.27;2.50;;;;;;;;;;6006687;29;20074;-74
2022/02/03 15:03:22;;;;;;;7.40;2.33;;;;;;;;;;6005885;29;20054;-74
2022/02/03 15:06:34;;;;;;;6.10;2.17;;;;;;;;;;6005698;29;20049;-76
2022/02/03 15:10:14;;;;;;;4.35;2.00;;;;;;;;;;6005880;29;20484;-75
2022/02/03 15:13:32;;;;;;;11.70;2.58;;;;;;;;;;6004721;29;20057;-75
2022/02/03 15:16:35;;;;;;;7.38;2.03;;;;;;;;;;6006070;29;20061;-75
2022/02/03 15:19:59;;;;;;;5.63;2.00;;;;;;;;;;6003712;29;20053;-77
2022/02/03 15:23:02;;;;;;;7.55;2.10;;;;;;;;;;6004625;29;20111;-78
2022/02/03 15:26:06;;;;;;;5.22;2.08;;;;;;;;;;6005226;29;20132;-79
2022/02/03 15:29:11;;;;;;;7.32;2.30;;;;;;;;;;6005456;29;20057;-79
2022/02/03 15:32:14;;;;;;;11.10;2.30;;;;;;;;;;6004235;29;20129;-79
2022/02/03 15:35:25;;;;;;;9.43;2.30;;;;;;;;;;6004441;29;20048;-77
2022/02/03 15:38:33;;;;;;;7.03;2.65;;;;;;;;;;6005592;29;20129;-79
2022/02/03 15:41:37;;;;;;;5.10;2.40;;;;;;;;;;6004896;29;20046;-79
2022/02/03 15:44:43;;;;;;;7.13;2.40;;;;;;;;;;6008408;29;20054;-78
2022/02/03 15:47:50;;;;;;;8.20;2.58;;;;;;;;;;6013657;29;20106;-75
2022/02/03 15:51:16;;;;;;;6.05;2.70;;;;;;;;;;6012554;29;20056;-75
2022/02/03 15:58:23;;;;;;;9.15;3.22;;;;;;;;;;6012816;29;20098;-76
2022/02/03 16:17:54;;;;;;;6.57;2.97;;;;;;;;;;6011962;29;20050;-75
2022/02/03 16:21:03;;;;;;;;;;;;;;;;;;6012766;29;20069;-76
2022/02/03 16:24:18;;;;;;;8.20;3.60;;;;;;;;;;6012433;29;20068;-77
2022/02/03 16:51:01;;;;;;;10.38;3.80;;;;;;;;;;6011838;29;20050;-74
2022/02/03 16:54:12;;;;;;;11.15;4.20;;;;;;;;;;6011117;29;20137;-75
2022/02/03 16:57:23;;;;;;;14.80;3.78;;;;;;;;;;6007741;29;20046;-76
2022/02/03 17:00:27;;;;;;;16.60;5.18;;;;;;;;;;6007116;29;20054;-74
2022/02/03 17:03:35;;;;;;;81.00;40.15;;;;;;;;;;6005584;29;20155;-75
2022/02/03 17:06:43;;;;;;;24.60;6.50;;;;;;;;;;6006371;29;20415;-78
2022/02/03 17:09:47;;;;;;;12.70;4.40;;;;;;;;;;6008513;29;20057;-75
2022/02/03 17:12:52;;;;;;;16.83;5.88;;;;;;;;;;6007620;29;20500;-75
2022/02/03 17:15:56;;;;;;;19.65;5.03;;;;;;;;;;6007126;29;20497;-75
2022/02/03 17:19:02;;;;;;;17.45;4.85;;;;;;;;;;6007380;29;20054;-77
2022/02/03 17:22:06;;;;;;;16.67;6.07;;;;;;;;;;6006586;29;20543;-75
2022/02/03 17:25:14;;;;;;;19.88;5.57;;;;;;;;;;6006861;29;20060;-75
2022/02/03 17:28:23;;;;;;;12.48;4.78;;;;;;;;;;6007992;29;20179;-75
2022/02/03 17:31:38;;;;;;;20.67;5.55;;;;;;;;;;6005643;29;20465;-75
2022/02/03 17:45:25;;;;;;;17.30;6.47;;;;;;;;;;6006023;29;20060;-77
2022/02/03 18:26:15;;;;;;;11.27;4.07;;;;;;;;;;6006677;29;20494;-76
2022/02/03 18:33:10;;;;;;;16.00;5.03;;;;;;;;;;6007455;29;20049;-75
2022/02/03 18:36:31;;;;;;;11.65;4.25;;;;;;;;;;6007132;29;20147;-76
2022/02/03 18:56:30;;;;;;;13.38;5.10;;;;;;;;;;6004379;29;20540;-75
2022/02/03 18:59:59;;;;;;;11.70;4.90;;;;;;;;;;6006529;29;20050;-75
2022/02/03 19:03:19;;;;;;;14.57;5.47;;;;;;;;;;6005344;29;20158;-76
2022/02/03 19:27:01;;;;;;;15.35;6.07;;;;;;;;;;5942361;29;20476;-76
2022/02/03 19:57:33;;;;;;;20.30;7.35;;;;;;;;;;6003618;29;20672;-76
2022/02/03 20:07:19;;;;;;;18.15;7.82;;;;;;;;;;6004983;29;20050;-79
2022/02/03 20:10:27;;;;;;;19.00;7.05;;;;;;;;;;6005089;29;20049;-77
2022/02/03 20:13:31;;;;;;;16.98;6.70;;;;;;;;;;6006780;29;20046;-79
2022/02/03 20:16:36;;;;;;;15.20;7.07;;;;;;;;;;6005627;29;20454;-78
2022/02/03 20:19:44;;;;;;;20.60;7.20;;;;;;;;;;6004431;29;20077;-76
2022/02/03 20:22:48;;;;;;;22.75;9.15;;;;;;;;;;6003653;29;20573;-78
2022/02/03 20:25:57;;;;;;;25.73;9.02;;;;;;;;;;6005965;29;20080;-74
2022/02/03 20:29:00;;;;;;;23.17;9.20;;;;;;;;;;6005674;29;20126;-74
2022/02/03 20:32:09;;;;;;;21.67;9.25;;;;;;;;;;6006630;29;20054;-77
2022/02/03 20:35:12;;;;;;;19.95;9.35;;;;;;;;;;6010135;29;20061;-76
2022/02/03 20:38:16;;;;;;;23.33;8.60;;;;;;;;;;6010056;29;20046;-77
2022/02/03 20:41:19;;;;;;;22.80;8.55;;;;;;;;;;6007424;29;20050;-76
2022/02/03 20:44:23;;;;;;;17.63;7.20;;;;;;;;;;6009192;29;20084;-77
2022/02/03 20:47:30;;;;;;;22.38;8.38;;;;;;;;;;6008709;29;20130;-74
2022/02/03 20:50:35;;;;;;;18.42;8.18;;;;;;;;;;6009305;29;20060;-73
2022/02/03 20:53:39;;;;;;;18.42;7.13;;;;;;;;;;6009124;29;20053;-75
2022/02/03 20:56:43;;;;;;;18.20;6.22;;;;;;;;;;6009444;29;20077;-75
2022/02/03 21:03:17;;;;;;;16.52;6.25;;;;;;;;;;6002770;29;20069;-74
2022/02/03 21:06:23;;;;;;;13.60;6.03;;;;;;;;;;6007604;29;20061;-74
2022/02/03 21:09:29;;;;;;;18.58;5.93;;;;;;;;;;6009260;29;20306;-76
2022/02/03 21:12:34;;;;;;;15.98;6.80;;;;;;;;;;6008046;29;20054;-74
2022/02/03 21:15:40;;;;;;;28.35;11.82;;;;;;;;;;6006693;29;20330;-75
2022/02/03 21:18:47;;;;;;;18.60;7.70;;;;;;;;;;6009098;29;20130;-74
2022/02/03 21:21:52;;;;;;;38.38;16.60;;;;;;;;;;6007595;29;20053;-74
2022/02/03 21:25:01;;;;;;;21.48;10.25;;;;;;;;;;6006717;29;20110;-74
2022/02/03 21:28:09;;;;;;;29.75;11.90;;;;;;;;;;6006730;29;20130;-75
2022/02/03 21:31:13;;;;;;;13.75;6.47;;;;;;;;;;6007639;29;20505;-74
2022/02/03 21:34:21;;;;;;;16.10;6.20;;;;;;;;;;6008716;29;20061;-73
2022/02/03 21:37:24;;;;;;;12.65;5.43;;;;;;;;;;6007481;29;20045;-73
2022/02/03 21:40:28;;;;;;;20.20;5.80;;;;;;;;;;6008266;29;20058;-73
2022/02/03 21:43:32;;;;;;;14.00;5.10;;;;;;;;;;6006820;29;20112;-73
2022/02/03 21:46:35;;;;;;;15.95;5.22;;;;;;;;;;6006094;29;20054;-73
2022/02/03 21:49:39;;;;;;;15.50;4.63;;;;;;;;;;6007802;29;20046;-75
2022/02/03 21:52:48;;;;;;;13.63;5.40;;;;;;;;;;6007219;29;20049;-74
2022/02/03 21:55:53;;;;;;;15.55;4.57;;;;;;;;;;6008154;29;20053;-75
2022/02/03 21:58:56;;;;;;;15.85;4.90;;;;;;;;;;6005856;29;20054;-74
2022/02/03 22:01:59;;;;;;;15.48;5.45;;;;;;;;;;6006676;29;20050;-74
2022/02/03 22:05:04;;;;;;;17.02;5.10;;;;;;;;;;6008137;29;20053;-74
2022/02/03 22:08:07;;;;;;;14.68;4.47;;;;;;;;;;6006605;29;20622;-76
2022/02/03 22:11:10;;;;;;;15.80;4.70;;;;;;;;;;6006150;29;20053;-74
2022/02/03 22:14:16;;;;;;;11.55;4.53;;;;;;;;;;6008000;29;20963;-75
2022/02/03 22:17:19;;;;;;;20.13;4.88;;;;;;;;;;6006039;29;20061;-75
2022/02/03 22:20:29;;;;;;;12.73;4.53;;;;;;;;;;6005650;29;20049;-74
2022/02/03 22:23:46;;;;;;;12.90;5.25;;;;;;;;;;6007742;29;20054;-73
2022/02/03 22:27:16;;;;;;;15.93;5.60;;;;;;;;;;6008109;29;20046;-76
2022/02/03 22:43:59;;;;;;;14.15;5.03;;;;;;;;;;6006134;29;20090;-75
2022/02/03 22:50:20;;;;;;;14.60;5.03;;;;;;;;;;6003401;29;20062;-76
2022/02/03 22:53:24;;;;;;;13.13;4.53;;;;;;;;;;6005790;29;20167;-77
2022/02/03 22:56:30;;;;;;;14.68;5.13;;;;;;;;;;6005604;29;20064;-73
2022/02/03 23:02:50;;;;;;;12.48;4.28;;;;;;;;;;6004652;29;20421;-73
2022/02/03 23:05:56;;;;;;;12.38;4.70;;;;;;;;;;6003352;29;20057;-73
2022/02/03 23:09:07;;;;;;;13.57;4.32;;;;;;;;;;6003046;29;20118;-74
2022/02/03 23:12:14;;;;;;;8.70;4.40;;;;;;;;;;6004078;29;20120;-73
2022/02/03 23:15:42;;;;;;;13.27;4.10;;;;;;;;;;6003214;29;20114;-73
2022/02/03 23:18:56;;;;;;;13.85;4.45;;;;;;;;;;6006398;29;20050;-73
2022/02/03 23:22:11;;;;;;;13.18;4.30;;;;;;;;;;6004285;29;20049;-73
2022/02/03 23:25:19;;;;;;;11.07;4.35;;;;;;;;;;6006025;29;20453;-73
2022/02/03 23:28:29;;;;;;;8.73;4.20;;;;;;;;;;6005000;29;20054;-73
2022/02/03 23:31:41;;;;;;;10.00;4.18;;;;;;;;;;6004958;29;20050;-74
2022/02/03 23:34:49;;;;;;;14.50;5.90;;;;;;;;;;6003589;29;20057;-73
2022/02/03 23:37:57;;;;;;;19.05;6.65;;;;;;;;;;6004651;29;20053;-74
2022/02/03 23:41:59;;;;;;;13.43;6.82;;;;;;;;;;6005036;29;20057;-73
2022/02/03 23:44:57;;;;;;;15.75;6.88;;;;;;;;;;6006138;29;20124;-72
